sensor_id;sensor_type;location;lat;lon;timestamp;P1;durP1;ratioP1;P2;durP2;ratioP2
31368;SDS011;18004;48.416;10.066;2023-10-08T00:00:44;5.80;;;2.13;;
31368;SDS011;18004;48.416;10.066;2023-10-08T00:03:19;4.35;;;2.80;;
31368;SDS011;18004;48.416;10.066;2023-10-08T00:05:52;4.72;;;2.60;;
31368;SDS011;18004;48.416;10.066;2023-10-08T00:08:18;3.22;;;2.10;;
31368;SDS011;18004;48.416;10.066;2023-10-08T00:10:44;3.90;;;2.13;;
31368;SDS011;18004;48.416;10.066;2023-10-08T00:13:14;4.60;;;2.28;;
31368;SDS011;18004;48.416;10.066;2023-10-08T00:15:43;3.60;;;2.05;;
31368;SDS011;18004;48.416;10.066;2023-10-08T00:18:20;8.38;;;2.88;;
31368;SDS011;18004;48.416;10.066;2023-10-08T00:20:48;3.67;;;2.40;;
31368;SDS011;18004;48.416;10.066;2023-10-08T00:23:22;5.82;;;2.28;;
31368;SDS011;18004;48.416;10.066;2023-10-08T00:25:51;5.88;;;2.47;;
31368;SDS011;18004;48.416;10.066;2023-10-08T00:28:20;7.00;;;2.28;;
31368;SDS011;18004;48.416;10.066;2023-10-08T00:30:46;5.55;;;2.50;;
31368;SDS011;18004;48.416;10.066;2023-10-08T00:33:13;5.40;;;2.38;;
31368;SDS011;18004;48.416;10.066;2023-10-08T00:35:40;4.97;;;2.88;;
31368;SDS011;18004;48.416;10.066;2023-10-08T00:38:10;4.68;;;2.35;;
31368;SDS011;18004;48.416;10.066;2023-10-08T00:40:48;4.47;;;2.38;;
31368;SDS011;18004;48.416;10.066;2023-10-08T00:43:33;7.72;;;3.00;;
31368;SDS011;18004;48.416;10.066;2023-10-08T00:46:03;3.92;;;2.05;;
31368;SDS011;18004;48.416;10.066;2023-10-08T00:48:34;7.22;;;3.25;;
31368;SDS011;18004;48.416;10.066;2023-10-08T00:51:02;3.45;;;2.42;;
31368;SDS011;18004;48.416;10.066;2023-10-08T00:53:43;4.28;;;2.80;;
31368;SDS011;18004;48.416;10.066;2023-10-08T00:56:09;7.40;;;2.60;;
31368;SDS011;18004;48.416;10.066;2023-10-08T00:58:40;3.25;;;2.30;;
31368;SDS011;18004;48.416;10.066;2023-10-08T01:01:11;7.28;;;2.63;;
31368;SDS011;18004;48.416;10.066;2023-10-08T01:03:37;3.75;;;2.03;;
31368;SDS011;18004;48.416;10.066;2023-10-08T01:06:10;7.47;;;2.53;;
31368;SDS011;18004;48.416;10.066;2023-10-08T01:08:37;3.08;;;2.20;;
31368;SDS011;18004;48.416;10.066;2023-10-08T01:11:17;5.20;;;2.30;;
31368;SDS011;18004;48.416;10.066;2023-10-08T01:13:44;4.03;;;2.45;;
31368;SDS011;18004;48.416;10.066;2023-10-08T01:16:10;5.28;;;2.35;;
31368;SDS011;18004;48.416;10.066;2023-10-08T01:18:36;5.90;;;2.45;;
31368;SDS011;18004;48.416;10.066;2023-10-08T01:21:08;4.13;;;2.50;;
31368;SDS011;18004;48.416;10.066;2023-10-08T01:23:34;4.18;;;2.20;;
31368;SDS011;18004;48.416;10.066;2023-10-08T01:25:59;7.63;;;2.70;;
31368;SDS011;18004;48.416;10.066;2023-10-08T01:28:40;5.85;;;2.30;;
31368;SDS011;18004;48.416;10.066;2023-10-08T01:31:08;3.38;;;2.60;;
31368;SDS011;18004;48.416;10.066;2023-10-08T01:33:40;2.40;;;2.13;;
31368;SDS011;18004;48.416;10.066;2023-10-08T01:36:12;4.57;;;2.67;;
31368;SDS011;18004;48.416;10.066;2023-10-08T01:38:38;3.22;;;2.30;;
31368;SDS011;18004;48.416;10.066;2023-10-08T01:41:07;3.72;;;2.53;;
31368;SDS011;18004;48.416;10.066;2023-10-08T01:43:44;4.05;;;1.98;;
31368;SDS011;18004;48.416;10.066;2023-10-08T01:46:15;8.63;;;2.88;;
31368;SDS011;18004;48.416;10.066;2023-10-08T01:48:41;4.07;;;2.63;;
31368;SDS011;18004;48.416;10.066;2023-10-08T01:51:10;3.72;;;2.38;;
31368;SDS011;18004;48.416;10.066;2023-10-08T01:53:37;9.00;;;2.33;;
31368;SDS011;18004;48.416;10.066;2023-10-08T01:56:04;3.70;;;2.40;;
31368;SDS011;18004;48.416;10.066;2023-10-08T01:58:30;6.72;;;2.25;;
31368;SDS011;18004;48.416;10.066;2023-10-08T02:00:58;7.22;;;2.55;;
31368;SDS011;18004;48.416;10.066;2023-10-08T02:03:25;3.97;;;2.33;;
31368;SDS011;18004;48.416;10.066;2023-10-08T02:05:52;5.20;;;2.53;;
31368;SDS011;18004;48.416;10.066;2023-10-08T02:08:19;8.52;;;2.90;;
31368;SDS011;18004;48.416;10.066;2023-10-08T02:10:45;4.75;;;2.70;;
31368;SDS011;18004;48.416;10.066;2023-10-08T02:13:14;6.07;;;2.75;;
31368;SDS011;18004;48.416;10.066;2023-10-08T02:15:43;4.28;;;1.95;;
31368;SDS011;18004;48.416;10.066;2023-10-08T02:18:10;4.72;;;2.30;;
31368;SDS011;18004;48.416;10.066;2023-10-08T02:20:38;4.57;;;2.78;;
31368;SDS011;18004;48.416;10.066;2023-10-08T02:23:05;5.97;;;2.80;;
31368;SDS011;18004;48.416;10.066;2023-10-08T02:25:31;8.82;;;2.95;;
31368;SDS011;18004;48.416;10.066;2023-10-08T02:27:57;3.65;;;2.53;;
31368;SDS011;18004;48.416;10.066;2023-10-08T02:30:23;5.10;;;2.50;;
31368;SDS011;18004;48.416;10.066;2023-10-08T02:32:49;6.38;;;2.88;;
31368;SDS011;18004;48.416;10.066;2023-10-08T02:35:15;4.22;;;2.70;;
31368;SDS011;18004;48.416;10.066;2023-10-08T02:37:41;4.35;;;2.80;;
31368;SDS011;18004;48.416;10.066;2023-10-08T02:40:09;9.93;;;2.55;;
31368;SDS011;18004;48.416;10.066;2023-10-08T02:42:50;5.32;;;2.67;;
31368;SDS011;18004;48.416;10.066;2023-10-08T02:45:20;9.43;;;2.90;;
31368;SDS011;18004;48.416;10.066;2023-10-08T02:47:47;5.10;;;3.10;;
31368;SDS011;18004;48.416;10.066;2023-10-08T02:50:12;6.90;;;2.83;;
31368;SDS011;18004;48.416;10.066;2023-10-08T02:52:42;3.38;;;2.13;;
31368;SDS011;18004;48.416;10.066;2023-10-08T02:55:10;4.72;;;2.78;;
31368;SDS011;18004;48.416;10.066;2023-10-08T02:57:50;4.15;;;2.47;;
31368;SDS011;18004;48.416;10.066;2023-10-08T03:00:16;7.28;;;2.78;;
31368;SDS011;18004;48.416;10.066;2023-10-08T03:02:45;4.50;;;2.22;;
31368;SDS011;18004;48.416;10.066;2023-10-08T03:05:11;3.55;;;2.22;;
31368;SDS011;18004;48.416;10.066;2023-10-08T03:07:43;8.23;;;2.70;;
31368;SDS011;18004;48.416;10.066;2023-10-08T03:10:09;4.38;;;2.08;;
31368;SDS011;18004;48.416;10.066;2023-10-08T03:12:45;4.25;;;2.67;;
31368;SDS011;18004;48.416;10.066;2023-10-08T03:15:15;9.05;;;3.20;;
31368;SDS011;18004;48.416;10.066;2023-10-08T03:18:03;3.30;;;2.15;;
31368;SDS011;18004;48.416;10.066;2023-10-08T03:20:36;4.35;;;2.78;;
31368;SDS011;18004;48.416;10.066;2023-10-08T03:23:12;6.93;;;3.17;;
31368;SDS011;18004;48.416;10.066;2023-10-08T03:25:57;5.22;;;3.05;;
31368;SDS011;18004;48.416;10.066;2023-10-08T03:28:27;6.10;;;2.80;;
31368;SDS011;18004;48.416;10.066;2023-10-08T03:30:57;7.30;;;2.95;;
31368;SDS011;18004;48.416;10.066;2023-10-08T03:33:33;3.38;;;2.42;;
31368;SDS011;18004;48.416;10.066;2023-10-08T03:36:01;4.50;;;3.07;;
31368;SDS011;18004;48.416;10.066;2023-10-08T03:38:35;4.07;;;2.92;;
31368;SDS011;18004;48.416;10.066;2023-10-08T03:41:15;10.00;;;2.78;;
31368;SDS011;18004;48.416;10.066;2023-10-08T03:43:54;4.63;;;2.67;;
31368;SDS011;18004;48.416;10.066;2023-10-08T03:46:27;3.97;;;2.67;;
31368;SDS011;18004;48.416;10.066;2023-10-08T03:48:54;4.82;;;2.90;;
31368;SDS011;18004;48.416;10.066;2023-10-08T03:51:22;4.32;;;2.70;;
31368;SDS011;18004;48.416;10.066;2023-10-08T03:53:52;7.45;;;3.20;;
31368;SDS011;18004;48.416;10.066;2023-10-08T03:56:40;4.28;;;2.67;;
31368;SDS011;18004;48.416;10.066;2023-10-08T03:59:16;6.35;;;3.22;;
31368;SDS011;18004;48.416;10.066;2023-10-08T04:01:55;5.15;;;3.00;;
31368;SDS011;18004;48.416;10.066;2023-10-08T04:04:42;13.77;;;3.10;;
31368;SDS011;18004;48.416;10.066;2023-10-08T04:07:23;9.88;;;2.67;;
31368;SDS011;18004;48.416;10.066;2023-10-08T04:09:58;5.65;;;2.92;;
31368;SDS011;18004;48.416;10.066;2023-10-08T04:12:45;11.50;;;3.10;;
31368;SDS011;18004;48.416;10.066;2023-10-08T04:15:16;5.90;;;2.88;;
31368;SDS011;18004;48.416;10.066;2023-10-08T04:17:43;6.68;;;2.83;;
31368;SDS011;18004;48.416;10.066;2023-10-08T04:20:15;8.38;;;2.90;;
31368;SDS011;18004;48.416;10.066;2023-10-08T04:23:01;7.88;;;3.40;;
31368;SDS011;18004;48.416;10.066;2023-10-08T04:25:30;5.85;;;3.25;;
31368;SDS011;18004;48.416;10.066;2023-10-08T04:27:57;6.53;;;2.92;;
31368;SDS011;18004;48.416;10.066;2023-10-08T04:30:24;5.80;;;2.92;;
31368;SDS011;18004;48.416;10.066;2023-10-08T04:35:35;8.07;;;3.40;;
31368;SDS011;18004;48.416;10.066;2023-10-08T04:38:05;8.80;;;3.15;;
31368;SDS011;18004;48.416;10.066;2023-10-08T04:40:34;4.97;;;3.35;;
31368;SDS011;18004;48.416;10.066;2023-10-08T04:43:06;4.78;;;3.03;;
31368;SDS011;18004;48.416;10.066;2023-10-08T04:45:35;5.60;;;3.00;;
31368;SDS011;18004;48.416;10.066;2023-10-08T04:48:03;8.93;;;2.97;;
31368;SDS011;18004;48.416;10.066;2023-10-08T04:50:35;5.60;;;2.78;;
31368;SDS011;18004;48.416;10.066;2023-10-08T04:53:03;5.22;;;2.90;;
31368;SDS011;18004;48.416;10.066;2023-10-08T04:55:34;4.68;;;3.03;;
31368;SDS011;18004;48.416;10.066;2023-10-08T04:58:06;5.43;;;3.03;;
31368;SDS011;18004;48.416;10.066;2023-10-08T05:00:45;8.40;;;3.35;;
31368;SDS011;18004;48.416;10.066;2023-10-08T05:03:20;6.38;;;3.72;;
31368;SDS011;18004;48.416;10.066;2023-10-08T05:05:53;4.45;;;2.97;;
31368;SDS011;18004;48.416;10.066;2023-10-08T05:08:33;5.05;;;3.03;;
31368;SDS011;18004;48.416;10.066;2023-10-08T05:11:18;4.72;;;2.90;;
31368;SDS011;18004;48.416;10.066;2023-10-08T05:14:12;12.48;;;3.15;;
31368;SDS011;18004;48.416;10.066;2023-10-08T05:17:16;4.18;;;2.95;;
31368;SDS011;18004;48.416;10.066;2023-10-08T05:19:44;4.47;;;2.75;;
31368;SDS011;18004;48.416;10.066;2023-10-08T05:22:16;8.23;;;3.53;;
31368;SDS011;18004;48.416;10.066;2023-10-08T05:24:52;5.75;;;3.53;;
31368;SDS011;18004;48.416;10.066;2023-10-08T05:27:36;9.13;;;4.00;;
31368;SDS011;18004;48.416;10.066;2023-10-08T05:33:03;5.50;;;3.47;;
31368;SDS011;18004;48.416;10.066;2023-10-08T05:35:38;6.72;;;3.53;;
31368;SDS011;18004;48.416;10.066;2023-10-08T05:40:44;6.75;;;3.63;;
31368;SDS011;18004;48.416;10.066;2023-10-08T05:43:37;9.68;;;3.03;;
31368;SDS011;18004;48.416;10.066;2023-10-08T05:48:44;6.55;;;3.08;;
31368;SDS011;18004;48.416;10.066;2023-10-08T05:51:27;4.80;;;2.78;;
31368;SDS011;18004;48.416;10.066;2023-10-08T05:57:15;4.93;;;3.22;;
31368;SDS011;18004;48.416;10.066;2023-10-08T06:00:02;7.07;;;3.33;;
31368;SDS011;18004;48.416;10.066;2023-10-08T06:02:29;9.98;;;3.33;;
31368;SDS011;18004;48.416;10.066;2023-10-08T06:05:05;5.38;;;2.67;;
31368;SDS011;18004;48.416;10.066;2023-10-08T06:07:41;6.00;;;3.10;;
31368;SDS011;18004;48.416;10.066;2023-10-08T06:10:18;7.45;;;3.63;;
31368;SDS011;18004;48.416;10.066;2023-10-08T06:12:57;5.55;;;3.03;;
31368;SDS011;18004;48.416;10.066;2023-10-08T06:15:44;7.30;;;3.70;;
31368;SDS011;18004;48.416;10.066;2023-10-08T06:18:20;5.38;;;2.78;;
31368;SDS011;18004;48.416;10.066;2023-10-08T06:20:51;5.43;;;2.90;;
31368;SDS011;18004;48.416;10.066;2023-10-08T06:23:21;5.95;;;2.67;;
31368;SDS011;18004;48.416;10.066;2023-10-08T06:25:48;6.15;;;3.42;;
31368;SDS011;18004;48.416;10.066;2023-10-08T06:28:23;5.00;;;2.70;;
31368;SDS011;18004;48.416;10.066;2023-10-08T06:30:54;8.35;;;2.45;;
31368;SDS011;18004;48.416;10.066;2023-10-08T06:33:22;9.95;;;3.38;;
31368;SDS011;18004;48.416;10.066;2023-10-08T06:35:51;6.05;;;3.05;;
31368;SDS011;18004;48.416;10.066;2023-10-08T06:38:43;3.30;;;2.17;;
31368;SDS011;18004;48.416;10.066;2023-10-08T06:41:13;5.10;;;2.70;;
31368;SDS011;18004;48.416;10.066;2023-10-08T06:43:46;11.90;;;3.15;;
31368;SDS011;18004;48.416;10.066;2023-10-08T06:46:30;7.38;;;2.70;;
31368;SDS011;18004;48.416;10.066;2023-10-08T06:48:59;5.60;;;2.97;;
31368;SDS011;18004;48.416;10.066;2023-10-08T06:51:27;7.53;;;3.35;;
31368;SDS011;18004;48.416;10.066;2023-10-08T06:53:56;6.53;;;3.08;;
31368;SDS011;18004;48.416;10.066;2023-10-08T06:56:25;8.35;;;3.22;;
31368;SDS011;18004;48.416;10.066;2023-10-08T06:58:51;10.18;;;2.97;;
31368;SDS011;18004;48.416;10.066;2023-10-08T07:01:20;5.78;;;2.90;;
31368;SDS011;18004;48.416;10.066;2023-10-08T07:04:04;5.38;;;2.85;;
31368;SDS011;18004;48.416;10.066;2023-10-08T07:06:32;5.90;;;2.83;;
31368;SDS011;18004;48.416;10.066;2023-10-08T07:09:02;5.63;;;2.83;;
31368;SDS011;18004;48.416;10.066;2023-10-08T07:11:32;7.45;;;3.05;;
31368;SDS011;18004;48.416;10.066;2023-10-08T07:14:04;6.03;;;2.47;;
31368;SDS011;18004;48.416;10.066;2023-10-08T07:16:31;5.13;;;2.90;;
31368;SDS011;18004;48.416;10.066;2023-10-08T07:18:57;7.78;;;2.97;;
31368;SDS011;18004;48.416;10.066;2023-10-08T07:21:40;4.97;;;3.00;;
31368;SDS011;18004;48.416;10.066;2023-10-08T07:24:13;6.75;;;2.80;;
31368;SDS011;18004;48.416;10.066;2023-10-08T07:26:46;3.47;;;2.55;;
31368;SDS011;18004;48.416;10.066;2023-10-08T07:29:13;6.43;;;2.90;;
31368;SDS011;18004;48.416;10.066;2023-10-08T07:31:42;6.80;;;2.83;;
31368;SDS011;18004;48.416;10.066;2023-10-08T07:34:18;3.72;;;2.20;;
31368;SDS011;18004;48.416;10.066;2023-10-08T07:36:50;6.20;;;2.45;;
31368;SDS011;18004;48.416;10.066;2023-10-08T07:39:17;6.72;;;2.70;;
31368;SDS011;18004;48.416;10.066;2023-10-08T07:42:07;3.90;;;2.70;;
31368;SDS011;18004;48.416;10.066;2023-10-08T07:44:34;4.80;;;2.63;;
31368;SDS011;18004;48.416;10.066;2023-10-08T07:47:04;3.75;;;2.47;;
31368;SDS011;18004;48.416;10.066;2023-10-08T07:52:01;4.38;;;2.20;;
31368;SDS011;18004;48.416;10.066;2023-10-08T07:54:29;10.63;;;3.42;;
31368;SDS011;18004;48.416;10.066;2023-10-08T07:56:59;4.72;;;2.50;;
31368;SDS011;18004;48.416;10.066;2023-10-08T07:59:43;6.60;;;2.45;;
31368;SDS011;18004;48.416;10.066;2023-10-08T08:02:13;13.65;;;3.35;;
31368;SDS011;18004;48.416;10.066;2023-10-08T08:04:43;7.22;;;2.83;;
31368;SDS011;18004;48.416;10.066;2023-10-08T08:07:10;4.68;;;2.40;;
31368;SDS011;18004;48.416;10.066;2023-10-08T08:09:53;10.20;;;3.33;;
31368;SDS011;18004;48.416;10.066;2023-10-08T08:12:24;5.57;;;2.67;;
31368;SDS011;18004;48.416;10.066;2023-10-08T08:14:52;5.88;;;3.17;;
31368;SDS011;18004;48.416;10.066;2023-10-08T08:17:18;6.05;;;2.72;;
31368;SDS011;18004;48.416;10.066;2023-10-08T08:19:44;7.60;;;2.83;;
31368;SDS011;18004;48.416;10.066;2023-10-08T08:22:18;5.07;;;2.83;;
31368;SDS011;18004;48.416;10.066;2023-10-08T08:24:48;4.65;;;2.40;;
31368;SDS011;18004;48.416;10.066;2023-10-08T08:27:40;5.43;;;2.88;;
31368;SDS011;18004;48.416;10.066;2023-10-08T08:30:12;4.25;;;2.75;;
31368;SDS011;18004;48.416;10.066;2023-10-08T08:32:41;6.15;;;2.22;;
31368;SDS011;18004;48.416;10.066;2023-10-08T08:37:42;6.20;;;2.35;;
31368;SDS011;18004;48.416;10.066;2023-10-08T08:40:08;4.78;;;2.90;;
31368;SDS011;18004;48.416;10.066;2023-10-08T08:42:51;9.25;;;3.28;;
31368;SDS011;18004;48.416;10.066;2023-10-08T08:45:24;8.35;;;3.20;;
31368;SDS011;18004;48.416;10.066;2023-10-08T08:47:50;8.20;;;2.92;;
31368;SDS011;18004;48.416;10.066;2023-10-08T08:50:18;10.88;;;3.08;;
31368;SDS011;18004;48.416;10.066;2023-10-08T08:52:46;3.13;;;2.42;;
31368;SDS011;18004;48.416;10.066;2023-10-08T08:55:12;5.32;;;2.67;;
31368;SDS011;18004;48.416;10.066;2023-10-08T08:57:42;5.18;;;3.08;;
31368;SDS011;18004;48.416;10.066;2023-10-08T09:00:09;10.43;;;2.58;;
31368;SDS011;18004;48.416;10.066;2023-10-08T09:02:37;4.05;;;2.28;;
31368;SDS011;18004;48.416;10.066;2023-10-08T09:05:06;5.60;;;2.58;;
31368;SDS011;18004;48.416;10.066;2023-10-08T09:07:52;6.40;;;2.75;;
31368;SDS011;18004;48.416;10.066;2023-10-08T09:10:20;4.03;;;2.40;;
31368;SDS011;18004;48.416;10.066;2023-10-08T09:15:17;7.05;;;2.42;;
31368;SDS011;18004;48.416;10.066;2023-10-08T09:17:44;11.85;;;2.88;;
31368;SDS011;18004;48.416;10.066;2023-10-08T09:20:10;5.50;;;2.20;;
31368;SDS011;18004;48.416;10.066;2023-10-08T09:22:37;4.80;;;2.40;;
31368;SDS011;18004;48.416;10.066;2023-10-08T09:25:03;11.82;;;2.60;;
31368;SDS011;18004;48.416;10.066;2023-10-08T09:27:32;3.35;;;2.05;;
31368;SDS011;18004;48.416;10.066;2023-10-08T09:29:58;5.65;;;1.63;;
31368;SDS011;18004;48.416;10.066;2023-10-08T09:32:33;6.10;;;2.38;;
31368;SDS011;18004;48.416;10.066;2023-10-08T09:34:59;3.05;;;1.90;;
31368;SDS011;18004;48.416;10.066;2023-10-08T09:37:25;7.13;;;2.08;;
31368;SDS011;18004;48.416;10.066;2023-10-08T09:39:52;5.72;;;2.13;;
31368;SDS011;18004;48.416;10.066;2023-10-08T09:42:21;5.75;;;2.08;;
31368;SDS011;18004;48.416;10.066;2023-10-08T09:44:49;2.58;;;1.30;;
31368;SDS011;18004;48.416;10.066;2023-10-08T09:47:17;4.50;;;2.13;;
31368;SDS011;18004;48.416;10.066;2023-10-08T09:49:50;4.97;;;2.35;;
31368;SDS011;18004;48.416;10.066;2023-10-08T09:52:32;8.43;;;2.30;;
31368;SDS011;18004;48.416;10.066;2023-10-08T09:55:07;7.10;;;2.17;;
31368;SDS011;18004;48.416;10.066;2023-10-08T09:58:16;4.93;;;1.60;;
31368;SDS011;18004;48.416;10.066;2023-10-08T10:00:58;3.40;;;1.58;;
31368;SDS011;18004;48.416;10.066;2023-10-08T10:03:29;3.88;;;1.63;;
31368;SDS011;18004;48.416;10.066;2023-10-08T10:06:13;8.85;;;2.00;;
31368;SDS011;18004;48.416;10.066;2023-10-08T10:08:55;3.25;;;1.63;;
31368;SDS011;18004;48.416;10.066;2023-10-08T10:11:36;7.22;;;1.85;;
31368;SDS011;18004;48.416;10.066;2023-10-08T10:14:05;9.82;;;1.80;;
31368;SDS011;18004;48.416;10.066;2023-10-08T10:20:17;3.42;;;1.85;;
31368;SDS011;18004;48.416;10.066;2023-10-08T10:23:42;5.28;;;1.83;;
31368;SDS011;18004;48.416;10.066;2023-10-08T10:29:31;5.20;;;2.20;;
31368;SDS011;18004;48.416;10.066;2023-10-08T10:32:33;4.53;;;1.85;;
31368;SDS011;18004;48.416;10.066;2023-10-08T10:36:11;11.85;;;1.90;;
31368;SDS011;18004;48.416;10.066;2023-10-08T10:38:38;6.95;;;1.92;;
31368;SDS011;18004;48.416;10.066;2023-10-08T10:41:09;2.80;;;1.85;;
31368;SDS011;18004;48.416;10.066;2023-10-08T10:43:49;5.70;;;2.17;;
31368;SDS011;18004;48.416;10.066;2023-10-08T10:46:18;5.45;;;2.03;;
31368;SDS011;18004;48.416;10.066;2023-10-08T10:49:07;8.55;;;1.83;;
31368;SDS011;18004;48.416;10.066;2023-10-08T10:51:59;4.55;;;2.22;;
31368;SDS011;18004;48.416;10.066;2023-10-08T10:54:25;10.60;;;2.33;;
31368;SDS011;18004;48.416;10.066;2023-10-08T10:56:52;5.60;;;2.70;;
31368;SDS011;18004;48.416;10.066;2023-10-08T10:59:31;11.73;;;3.50;;
31368;SDS011;18004;48.416;10.066;2023-10-08T11:02:03;10.90;;;2.53;;
31368;SDS011;18004;48.416;10.066;2023-10-08T11:04:33;5.40;;;1.70;;
31368;SDS011;18004;48.416;10.066;2023-10-08T11:07:13;7.00;;;1.88;;
31368;SDS011;18004;48.416;10.066;2023-10-08T11:09:41;15.90;;;2.20;;
31368;SDS011;18004;48.416;10.066;2023-10-08T11:12:09;4.90;;;2.03;;
31368;SDS011;18004;48.416;10.066;2023-10-08T11:14:41;6.30;;;1.45;;
31368;SDS011;18004;48.416;10.066;2023-10-08T11:17:15;5.65;;;1.90;;
31368;SDS011;18004;48.416;10.066;2023-10-08T11:19:47;5.95;;;1.70;;
31368;SDS011;18004;48.416;10.066;2023-10-08T11:22:14;5.55;;;1.95;;
31368;SDS011;18004;48.416;10.066;2023-10-08T11:24:46;3.28;;;1.70;;
31368;SDS011;18004;48.416;10.066;2023-10-08T11:27:19;3.42;;;1.73;;
31368;SDS011;18004;48.416;10.066;2023-10-08T11:30:04;9.68;;;1.65;;
31368;SDS011;18004;48.416;10.066;2023-10-08T11:32:36;17.10;;;2.30;;
31368;SDS011;18004;48.416;10.066;2023-10-08T11:35:03;6.55;;;2.03;;
31368;SDS011;18004;48.416;10.066;2023-10-08T11:37:44;6.80;;;1.83;;
31368;SDS011;18004;48.416;10.066;2023-10-08T11:40:26;3.20;;;1.48;;
31368;SDS011;18004;48.416;10.066;2023-10-08T11:45:24;8.05;;;1.92;;
31368;SDS011;18004;48.416;10.066;2023-10-08T11:47:52;4.30;;;1.88;;
31368;SDS011;18004;48.416;10.066;2023-10-08T11:50:25;4.93;;;1.95;;
31368;SDS011;18004;48.416;10.066;2023-10-08T11:53:01;8.88;;;2.13;;
31368;SDS011;18004;48.416;10.066;2023-10-08T11:55:33;3.28;;;1.60;;
31368;SDS011;18004;48.416;10.066;2023-10-08T11:58:01;6.13;;;2.00;;
31368;SDS011;18004;48.416;10.066;2023-10-08T12:00:38;17.02;;;2.70;;
31368;SDS011;18004;48.416;10.066;2023-10-08T12:03:12;12.65;;;1.88;;
31368;SDS011;18004;48.416;10.066;2023-10-08T12:05:43;3.78;;;2.00;;
31368;SDS011;18004;48.416;10.066;2023-10-08T12:08:19;6.10;;;1.85;;
31368;SDS011;18004;48.416;10.066;2023-10-08T12:10:48;13.60;;;2.13;;
31368;SDS011;18004;48.416;10.066;2023-10-08T12:13:19;4.50;;;1.95;;
31368;SDS011;18004;48.416;10.066;2023-10-08T12:15:53;7.47;;;2.22;;
31368;SDS011;18004;48.416;10.066;2023-10-08T12:18:31;8.65;;;2.63;;
31368;SDS011;18004;48.416;10.066;2023-10-08T12:21:05;7.65;;;2.13;;
31368;SDS011;18004;48.416;10.066;2023-10-08T12:23:38;7.97;;;2.28;;
31368;SDS011;18004;48.416;10.066;2023-10-08T12:26:06;8.45;;;2.42;;
31368;SDS011;18004;48.416;10.066;2023-10-08T12:28:33;8.90;;;2.17;;
31368;SDS011;18004;48.416;10.066;2023-10-08T12:30:59;5.75;;;2.20;;
31368;SDS011;18004;48.416;10.066;2023-10-08T12:33:26;10.43;;;2.60;;
31368;SDS011;18004;48.416;10.066;2023-10-08T12:35:54;3.83;;;1.48;;
31368;SDS011;18004;48.416;10.066;2023-10-08T12:38:24;5.97;;;1.38;;
31368;SDS011;18004;48.416;10.066;2023-10-08T12:40:56;7.13;;;1.90;;
31368;SDS011;18004;48.416;10.066;2023-10-08T12:43:24;5.00;;;1.90;;
31368;SDS011;18004;48.416;10.066;2023-10-08T12:45:54;10.70;;;2.08;;
31368;SDS011;18004;48.416;10.066;2023-10-08T12:50:47;5.40;;;1.85;;
31368;SDS011;18004;48.416;10.066;2023-10-08T12:53:28;10.00;;;2.40;;
31368;SDS011;18004;48.416;10.066;2023-10-08T12:56:08;11.75;;;2.28;;
31368;SDS011;18004;48.416;10.066;2023-10-08T12:58:41;5.55;;;1.90;;
31368;SDS011;18004;48.416;10.066;2023-10-08T13:01:09;9.18;;;2.40;;
31368;SDS011;18004;48.416;10.066;2023-10-08T13:03:36;15.27;;;2.65;;
31368;SDS011;18004;48.416;10.066;2023-10-08T13:06:07;6.30;;;1.60;;
31368;SDS011;18004;48.416;10.066;2023-10-08T13:08:39;5.97;;;2.28;;
31368;SDS011;18004;48.416;10.066;2023-10-08T13:11:06;9.27;;;1.95;;
31368;SDS011;18004;48.416;10.066;2023-10-08T13:13:32;11.77;;;2.15;;
31368;SDS011;18004;48.416;10.066;2023-10-08T13:15:59;18.15;;;1.95;;
31368;SDS011;18004;48.416;10.066;2023-10-08T13:18:29;6.05;;;1.85;;
31368;SDS011;18004;48.416;10.066;2023-10-08T13:20:55;4.70;;;1.83;;
31368;SDS011;18004;48.416;10.066;2023-10-08T13:23:22;8.40;;;2.38;;
31368;SDS011;18004;48.416;10.066;2023-10-08T13:25:49;6.32;;;1.92;;
31368;SDS011;18004;48.416;10.066;2023-10-08T13:28:24;5.05;;;2.00;;
31368;SDS011;18004;48.416;10.066;2023-10-08T13:30:53;4.53;;;1.95;;
31368;SDS011;18004;48.416;10.066;2023-10-08T13:33:22;12.48;;;2.15;;
31368;SDS011;18004;48.416;10.066;2023-10-08T13:35:48;5.47;;;1.42;;
31368;SDS011;18004;48.416;10.066;2023-10-08T13:38:18;4.72;;;2.03;;
31368;SDS011;18004;48.416;10.066;2023-10-08T13:40:51;4.43;;;1.95;;
31368;SDS011;18004;48.416;10.066;2023-10-08T13:43:30;3.77;;;1.83;;
31368;SDS011;18004;48.416;10.066;2023-10-08T13:46:16;3.80;;;1.98;;
31368;SDS011;18004;48.416;10.066;2023-10-08T13:48:48;4.68;;;1.80;;
31368;SDS011;18004;48.416;10.066;2023-10-08T13:51:18;6.82;;;2.35;;
31368;SDS011;18004;48.416;10.066;2023-10-08T13:53:49;7.93;;;2.13;;
31368;SDS011;18004;48.416;10.066;2023-10-08T13:56:19;5.22;;;1.75;;
31368;SDS011;18004;48.416;10.066;2023-10-08T13:58:49;5.90;;;1.67;;
31368;SDS011;18004;48.416;10.066;2023-10-08T14:01:17;6.55;;;2.55;;
31368;SDS011;18004;48.416;10.066;2023-10-08T14:03:48;8.95;;;1.83;;
31368;SDS011;18004;48.416;10.066;2023-10-08T14:06:18;2.95;;;1.73;;
31368;SDS011;18004;48.416;10.066;2023-10-08T14:08:45;10.43;;;2.25;;
31368;SDS011;18004;48.416;10.066;2023-10-08T14:11:23;7.32;;;1.95;;
31368;SDS011;18004;48.416;10.066;2023-10-08T14:13:55;5.70;;;2.13;;
31368;SDS011;18004;48.416;10.066;2023-10-08T14:16:24;5.50;;;2.33;;
31368;SDS011;18004;48.416;10.066;2023-10-08T14:18:53;4.05;;;1.95;;
31368;SDS011;18004;48.416;10.066;2023-10-08T14:21:23;5.80;;;2.08;;
31368;SDS011;18004;48.416;10.066;2023-10-08T14:24:03;9.73;;;2.50;;
31368;SDS011;18004;48.416;10.066;2023-10-08T14:26:30;7.07;;;2.03;;
31368;SDS011;18004;48.416;10.066;2023-10-08T14:29:02;7.68;;;2.50;;
31368;SDS011;18004;48.416;10.066;2023-10-08T14:31:55;8.57;;;2.55;;
31368;SDS011;18004;48.416;10.066;2023-10-08T14:34:29;6.15;;;2.53;;
31368;SDS011;18004;48.416;10.066;2023-10-08T14:37:13;8.95;;;2.20;;
31368;SDS011;18004;48.416;10.066;2023-10-08T14:39:57;7.97;;;2.88;;
31368;SDS011;18004;48.416;10.066;2023-10-08T14:42:41;6.97;;;2.28;;
31368;SDS011;18004;48.416;10.066;2023-10-08T14:45:32;6.22;;;2.08;;
31368;SDS011;18004;48.416;10.066;2023-10-08T14:48:04;14.35;;;4.68;;
31368;SDS011;18004;48.416;10.066;2023-10-08T14:50:36;7.35;;;3.13;;
31368;SDS011;18004;48.416;10.066;2023-10-08T14:53:04;7.65;;;2.90;;
31368;SDS011;18004;48.416;10.066;2023-10-08T14:55:30;4.75;;;2.08;;
31368;SDS011;18004;48.416;10.066;2023-10-08T14:58:00;6.57;;;2.33;;
31368;SDS011;18004;48.416;10.066;2023-10-08T15:00:33;13.48;;;2.97;;
31368;SDS011;18004;48.416;10.066;2023-10-08T15:03:04;4.97;;;2.28;;
31368;SDS011;18004;48.416;10.066;2023-10-08T15:05:30;3.83;;;2.22;;
31368;SDS011;18004;48.416;10.066;2023-10-08T15:07:56;2.53;;;1.48;;
31368;SDS011;18004;48.416;10.066;2023-10-08T15:10:22;4.45;;;2.13;;
31368;SDS011;18004;48.416;10.066;2023-10-08T15:12:49;8.18;;;2.75;;
31368;SDS011;18004;48.416;10.066;2023-10-08T15:15:17;5.35;;;2.70;;
31368;SDS011;18004;48.416;10.066;2023-10-08T15:17:43;6.53;;;2.70;;
31368;SDS011;18004;48.416;10.066;2023-10-08T15:20:12;4.45;;;2.47;;
31368;SDS011;18004;48.416;10.066;2023-10-08T15:22:43;4.95;;;2.38;;
31368;SDS011;18004;48.416;10.066;2023-10-08T15:25:10;12.75;;;2.28;;
31368;SDS011;18004;48.416;10.066;2023-10-08T15:27:36;6.38;;;2.33;;
31368;SDS011;18004;48.416;10.066;2023-10-08T15:30:08;4.82;;;1.60;;
31368;SDS011;18004;48.416;10.066;2023-10-08T15:32:40;6.72;;;2.78;;
31368;SDS011;18004;48.416;10.066;2023-10-08T15:35:11;12.17;;;3.00;;
31368;SDS011;18004;48.416;10.066;2023-10-08T15:37:42;7.32;;;2.47;;